createdAt,value
2022-09-22T00:01:35.600Z,97311.09
2022-09-22T00:04:07.267Z,97305.13
2022-09-22T00:06:38.878Z,97303.22
2022-09-22T00:09:09.026Z,97296.41
2022-09-22T00:11:39.061Z,97292.25
2022-09-22T00:14:10.543Z,97292.84
2022-09-22T00:16:40.219Z,97292.25
2022-09-22T00:19:08.947Z,97290.84
2022-09-22T00:21:37.475Z,97296.81
2022-09-22T00:24:08.108Z,97285.78
2022-09-22T00:26:38.098Z,97289.47
2022-09-22T00:29:09.352Z,97282.44
2022-09-22T00:31:39.229Z,97280.69
2022-09-22T00:34:08.739Z,97287.78
2022-09-22T00:36:36.945Z,97285.22
2022-09-22T00:39:05.153Z,97279.28
2022-09-22T00:41:37.375Z,97273.50
2022-09-22T00:44:33.012Z,97281.28
2022-09-22T00:47:04.308Z,97276.97
2022-09-22T00:49:40.290Z,97275.41
2022-09-22T00:52:08.534Z,97258.13
2022-09-22T00:54:36.622Z,97259.91
2022-09-22T00:57:09.252Z,97256.69
2022-09-22T00:59:39.873Z,97254.22
2022-09-22T01:02:09.048Z,97261.06
2022-09-22T01:04:37.135Z,97257.84
2022-09-22T01:07:06.993Z,97247.47
2022-09-22T01:09:35.256Z,97257.28
2022-09-22T01:12:04.263Z,97258.28
2022-09-22T01:14:46.520Z,97257.41
2022-09-22T01:17:23.223Z,97259.28
2022-09-22T01:20:11.225Z,97254.88
2022-09-22T01:23:28.897Z,97253.50
2022-09-22T01:26:20.421Z,97259.63
2022-09-22T01:29:14.220Z,97251.88
2022-09-22T01:31:52.966Z,97249.31
2022-09-22T01:34:28.562Z,97248.38
2022-09-22T01:37:05.468Z,97245.13
2022-09-22T01:39:40.982Z,97245.97
2022-09-22T01:42:12.869Z,97253.09
2022-09-22T01:44:46.467Z,97244.28
2022-09-22T01:47:20.598Z,97241.88
2022-09-22T01:49:53.044Z,97241.97
2022-09-22T01:52:25.087Z,97240.28
2022-09-22T01:54:57.078Z,97238.72
2022-09-22T01:57:32.297Z,97244.25
2022-09-22T02:00:08.555Z,97247.00
2022-09-22T02:02:51.874Z,97253.19
2022-09-22T02:05:25.781Z,97259.22
2022-09-22T02:07:56.200Z,97256.72
2022-09-22T02:10:32.087Z,97254.19
2022-09-22T02:13:01.397Z,97253.47
2022-09-22T02:15:47.572Z,97251.63
2022-09-22T02:18:21.893Z,97249.22
2022-09-22T02:20:51.513Z,97252.69
2022-09-22T02:23:19.835Z,97250.28
2022-09-22T02:25:49.018Z,97244.28
2022-09-22T02:28:21.148Z,97245.19
2022-09-22T02:31:10.833Z,97242.50
2022-09-22T02:33:43.405Z,97242.56
2022-09-22T02:36:24.708Z,97247.19
2022-09-22T02:39:00.778Z,97238.69
2022-09-22T02:41:37.922Z,97246.47
2022-09-22T02:44:10.166Z,97237.06
2022-09-22T02:46:44.150Z,97245.19
2022-09-22T02:49:18.101Z,97238.19
2022-09-22T02:51:49.506Z,97234.94
2022-09-22T02:54:17.897Z,97240.97
2022-09-22T02:56:46.605Z,97241.78
2022-09-22T02:59:15.193Z,97240.13
2022-09-22T03:01:43.943Z,97249.06
2022-09-22T03:04:13.732Z,97234.47
2022-09-22T03:06:41.970Z,97239.69
2022-09-22T03:09:10.206Z,97243.09
2022-09-22T03:11:38.567Z,97236.00
2022-09-22T03:14:06.974Z,97239.81
2022-09-22T03:16:35.097Z,97233.78
2022-09-22T03:19:03.080Z,97236.50
2022-09-22T03:21:32.414Z,97228.50
2022-09-22T03:24:00.536Z,97226.94
2022-09-22T03:26:28.532Z,97229.50
2022-09-22T03:28:56.612Z,97229.63
2022-09-22T03:31:24.694Z,97224.47
2022-09-22T03:33:52.991Z,97222.69
2022-09-22T03:36:21.748Z,97230.53
2022-09-22T03:38:52.055Z,97228.06
2022-09-22T03:41:20.328Z,97219.50
2022-09-22T03:43:48.362Z,97227.28
2022-09-22T03:46:16.483Z,97223.69
2022-09-22T03:48:45.431Z,97223.97
2022-09-22T03:51:13.831Z,97221.34
2022-09-22T03:53:41.803Z,97224.97
2022-09-22T03:56:13.683Z,97224.03
2022-09-22T03:58:42.374Z,97216.03
2022-09-22T04:01:11.631Z,97218.16
2022-09-22T04:03:40.995Z,97217.38
2022-09-22T04:06:09.578Z,97220.19
2022-09-22T04:08:37.707Z,97217.72
2022-09-22T04:11:06.860Z,97224.69
2022-09-22T04:13:36.408Z,97220.47
2022-09-22T04:16:05.315Z,97224.78
2022-09-22T04:18:33.479Z,97221.41
2022-09-22T04:21:01.449Z,97220.56
2022-09-22T04:23:29.485Z,97214.72
2022-09-22T04:25:57.462Z,97213.09
2022-09-22T04:28:25.657Z,97219.97
2022-09-22T04:30:55.406Z,97219.25
2022-09-22T04:33:24.219Z,97215.84
2022-09-22T04:35:52.771Z,97222.94
2022-09-22T04:38:21.507Z,97220.31
2022-09-22T04:40:50.006Z,97225.47
2022-09-22T04:43:17.966Z,97226.31
2022-09-22T04:45:47.209Z,97227.28
2022-09-22T04:48:17.115Z,97218.59
2022-09-22T04:50:47.976Z,97225.75
2022-09-22T04:53:16.929Z,97218.88
2022-09-22T04:55:45.542Z,97226.59
2022-09-22T04:58:14.040Z,97221.41
2022-09-22T05:00:42.281Z,97222.25
2022-09-22T05:03:12.291Z,97225.94
2022-09-22T05:05:41.807Z,97219.94
2022-09-22T05:08:10.331Z,97221.75
2022-09-22T05:10:38.442Z,97224.50
2022-09-22T05:13:08.053Z,97225.41
2022-09-22T05:15:36.008Z,97223.78
2022-09-22T05:18:04.227Z,97228.81
2022-09-22T05:20:32.143Z,97226.97
2022-09-22T05:23:01.558Z,97228.03
2022-09-22T05:25:29.731Z,97221.16
2022-09-22T05:27:58.117Z,97227.13
2022-09-22T05:30:27.372Z,97232.28
2022-09-22T05:32:55.374Z,97237.59
2022-09-22T05:35:25.650Z,97239.13
2022-09-22T05:37:54.487Z,97235.63
2022-09-22T05:40:26.324Z,97239.06
2022-09-22T05:42:55.026Z,97246.56
2022-09-22T05:45:23.402Z,97251.56
2022-09-22T05:47:51.914Z,97240.06
2022-09-22T05:50:21.508Z,97248.53
2022-09-22T05:52:49.471Z,97244.00
2022-09-22T05:55:17.900Z,97235.97
2022-09-22T05:57:47.172Z,97240.16
2022-09-22T06:00:15.627Z,97238.16
2022-09-22T06:02:44.946Z,97244.72
2022-09-22T06:05:15.408Z,97248.75
2022-09-22T06:07:44.840Z,97239.69
2022-09-22T06:10:12.912Z,97240.31
2022-09-22T06:12:41.169Z,97236.56
2022-09-22T06:15:11.430Z,97242.44
2022-09-22T06:17:39.480Z,97249.06
2022-09-22T06:20:08.525Z,97253.97
2022-09-22T06:22:37.350Z,97237.13
2022-09-22T06:25:09.077Z,97240.31
2022-09-22T06:27:37.048Z,97248.63
2022-09-22T06:30:05.539Z,97241.44
2022-09-22T06:32:39.215Z,97240.88
2022-09-22T06:35:07.880Z,97230.91
2022-09-22T06:37:38.961Z,97234.03
2022-09-22T06:40:11.093Z,97235.53
2022-09-22T06:42:42.745Z,97233.25
2022-09-22T06:45:11.601Z,97238.03
2022-09-22T06:47:41.637Z,97228.16
2022-09-22T06:50:10.204Z,97234.53
2022-09-22T06:52:38.545Z,97231.34
2022-09-22T06:55:07.487Z,97226.59
2022-09-22T06:57:35.427Z,97230.50
2022-09-22T07:00:05.119Z,97221.22
2022-09-22T07:02:33.152Z,97225.06
2022-09-22T07:05:02.503Z,97227.03
2022-09-22T07:07:32.229Z,97219.44
2022-09-22T07:10:00.236Z,97222.34
2022-09-22T07:12:28.637Z,97218.38
2022-09-22T07:14:58.056Z,97223.78
2022-09-22T07:17:31.848Z,97218.81
2022-09-22T07:20:00.147Z,97214.56
2022-09-22T07:22:29.471Z,97218.34
2022-09-22T07:24:57.466Z,97223.88
2022-09-22T07:27:26.052Z,97217.13
2022-09-22T07:29:55.082Z,97217.56
2022-09-22T07:32:23.101Z,97216.25
2022-09-22T07:34:52.732Z,97215.28
2022-09-22T07:37:20.833Z,97212.94
2022-09-22T07:39:50.284Z,97227.22
2022-09-22T07:42:20.016Z,97223.13
2022-09-22T07:45:05.400Z,97223.91
2022-09-22T07:47:51.369Z,97214.13
2022-09-22T07:50:19.497Z,97219.47
2022-09-22T07:52:51.983Z,97210.94
2022-09-22T07:55:24.303Z,97211.03
2022-09-22T07:57:56.868Z,97212.88
2022-09-22T08:00:26.444Z,97206.72
2022-09-22T08:02:55.985Z,97203.50
2022-09-22T08:05:24.986Z,97198.59
2022-09-22T08:07:55.191Z,97204.44
2022-09-22T08:10:24.651Z,97202.06
2022-09-22T08:12:53.256Z,97204.00
2022-09-22T08:15:27.123Z,97204.00
2022-09-22T08:17:57.528Z,97201.31
2022-09-22T08:20:26.337Z,97192.97
2022-09-22T08:22:58.263Z,97191.50
2022-09-22T08:25:27.638Z,97192.56
2022-09-22T08:27:55.764Z,97190.13
2022-09-22T08:30:23.734Z,97190.22
2022-09-22T08:32:51.681Z,97196.47
2022-09-22T08:35:19.733Z,97191.59
2022-09-22T08:37:50.338Z,97189.28
2022-09-22T08:40:23.761Z,97186.13
2022-09-22T08:42:55.663Z,97178.69
2022-09-22T08:45:32.026Z,97178.13
2022-09-22T08:48:24.650Z,97190.59
2022-09-22T08:51:14.430Z,97194.81
2022-09-22T08:53:48.734Z,97186.22
2022-09-22T08:56:30.493Z,97190.22
2022-09-22T08:59:05.104Z,97193.28
2022-09-22T09:01:46.447Z,97186.69
2022-09-22T09:04:45.556Z,97194.06
2022-09-22T09:07:22.459Z,97193.59
2022-09-22T09:10:04.415Z,97191.59
2022-09-22T09:12:46.324Z,97194.84
2022-09-22T09:15:30.590Z,97191.75
2022-09-22T09:18:04.458Z,97189.84
2022-09-22T09:20:38.961Z,97195.41
2022-09-22T09:23:16.189Z,97187.59
2022-09-22T09:25:44.977Z,97189.31
2022-09-22T09:28:17.991Z,97186.31
2022-09-22T09:30:51.946Z,97185.97
2022-09-22T09:33:29.511Z,97181.53
2022-09-22T09:35:58.898Z,97181.06
2022-09-22T09:38:29.576Z,97182.00
2022-09-22T09:41:03.855Z,97182.28
2022-09-22T09:43:33.447Z,97176.66
2022-09-22T09:46:17.091Z,97185.19
2022-09-22T09:49:05.733Z,97182.66
2022-09-22T09:51:39.763Z,97172.56
2022-09-22T09:54:13.087Z,97184.72
2022-09-22T09:57:04.068Z,97181.59
2022-09-22T09:59:49.783Z,97177.75
2022-09-22T10:02:22.326Z,97173.81
2022-09-22T10:04:52.144Z,97171.53
2022-09-22T10:07:22.545Z,97166.00
2022-09-22T10:09:52.126Z,97171.91
2022-09-22T10:12:26.644Z,97169.13
2022-09-22T10:14:56.553Z,97168.88
2022-09-22T10:17:30.658Z,97166.72
2022-09-22T10:20:17.871Z,97175.16
2022-09-22T10:22:45.893Z,97173.72
2022-09-22T10:25:22.767Z,97166.00
2022-09-22T10:28:06.938Z,97163.72
2022-09-22T10:30:37.677Z,97154.41
2022-09-22T10:33:13.940Z,97159.97
2022-09-22T10:35:43.770Z,97159.25
2022-09-22T10:38:21.533Z,97162.00
2022-09-22T10:40:56.183Z,97154.03
2022-09-22T10:43:44.053Z,97142.59
2022-09-22T10:46:34.861Z,97144.53
2022-09-22T10:49:13.466Z,97148.38
2022-09-22T10:51:55.642Z,97141.34
2022-09-22T10:54:52.275Z,97148.25
2022-09-22T10:57:37.693Z,97146.66
2022-09-22T11:00:13.092Z,97151.94
2022-09-22T11:03:25.373Z,97150.53
2022-09-22T11:06:27.967Z,97153.63
2022-09-22T11:09:35.262Z,97143.75
2022-09-22T11:12:18.975Z,97141.41
2022-09-22T11:15:15.883Z,97136.81
2022-09-22T11:18:14.593Z,97138.53
2022-09-22T11:20:44.891Z,97137.06
2022-09-22T11:23:38.775Z,97122.31
2022-09-22T11:26:20.062Z,97120.00
2022-09-22T11:29:20.415Z,97120.81
2022-09-22T11:31:53.512Z,97116.94
2022-09-22T11:34:40.785Z,97117.78
2022-09-22T11:37:29.690Z,97113.31
2022-09-22T11:40:22.352Z,97111.09
2022-09-22T11:43:04.338Z,97108.34
2022-09-22T11:45:44.798Z,97099.91
2022-09-22T11:48:27.965Z,97101.09
2022-09-22T11:51:31.983Z,97097.53
2022-09-22T11:54:18.128Z,97099.09
2022-09-22T11:56:51.027Z,97091.28
2022-09-22T11:59:31.155Z,97102.06
2022-09-22T12:02:04.614Z,97090.50
2022-09-22T12:04:38.067Z,97091.78
2022-09-22T12:07:11.098Z,97097.94
2022-09-22T12:09:44.509Z,97085.19
2022-09-22T12:12:19.452Z,97087.84
2022-09-22T12:14:56.951Z,97082.84
2022-09-22T12:17:30.616Z,97087.63
2022-09-22T12:20:12.630Z,97080.31
2022-09-22T12:23:06.456Z,97069.13
2022-09-22T12:25:49.543Z,97075.50
2022-09-22T12:28:22.859Z,97071.16
2022-09-22T12:31:05.720Z,97064.16
2022-09-22T12:33:36.960Z,97072.88
2022-09-22T12:36:06.899Z,97068.66
2022-09-22T12:38:35.390Z,97067.84
2022-09-22T12:41:04.706Z,97064.78
2022-09-22T12:43:36.793Z,97064.25
2022-09-22T12:46:20.447Z,97068.47
2022-09-22T12:48:48.631Z,97062.28
2022-09-22T12:51:29.517Z,97061.75
2022-09-22T12:54:30.739Z,97059.28
2022-09-22T12:57:00.524Z,97056.44
2022-09-22T13:00:07.086Z,97062.88
2022-09-22T13:02:43.436Z,97057.44
2022-09-22T13:05:34.603Z,97048.34
2022-09-22T13:08:03.384Z,97053.66
2022-09-22T13:10:57.616Z,97043.06
2022-09-22T13:13:44.543Z,97040.91
2022-09-22T13:16:36.649Z,97042.75
2022-09-22T13:19:10.509Z,97040.53
2022-09-22T13:21:41.685Z,97049.91
2022-09-22T13:24:24.891Z,97046.53
2022-09-22T13:27:05.052Z,97034.38
2022-09-22T13:29:34.422Z,97031.31
2022-09-22T13:32:18.392Z,97030.91
2022-09-22T13:34:46.799Z,97029.38
2022-09-22T13:37:19.229Z,97026.53
2022-09-22T13:39:50.743Z,97015.66
2022-09-22T13:42:22.312Z,97024.75
2022-09-22T13:44:57.733Z,97032.59
2022-09-22T13:47:28.118Z,97035.53
2022-09-22T13:50:02.705Z,97027.44
2022-09-22T13:52:32.746Z,97020.56
2022-09-22T13:55:06.329Z,97026.72
2022-09-22T13:57:37.779Z,97026.19
2022-09-22T14:00:08.580Z,97021.81
2022-09-22T14:02:45.733Z,97023.78
2022-09-22T14:05:20.499Z,97013.81
2022-09-22T14:08:07.684Z,97015.38
2022-09-22T14:10:38.141Z,97014.56
2022-09-22T14:13:06.143Z,97011.75
2022-09-22T14:15:43.278Z,97010.78
2022-09-22T14:18:18.370Z,97009.09
2022-09-22T14:20:47.074Z,97008.53
2022-09-22T14:23:18.815Z,97009.09
2022-09-22T14:25:47.187Z,97004.31
2022-09-22T14:28:22.534Z,97008.53
2022-09-22T14:30:51.296Z,97008.94
2022-09-22T14:33:24.091Z,96999.00
2022-09-22T14:36:01.052Z,96986.41
2022-09-22T14:38:34.357Z,96993.69
2022-09-22T14:41:02.884Z,96993.97
2022-09-22T14:43:35.578Z,96995.09
2022-09-22T14:46:21.486Z,96987.66
2022-09-22T14:48:50.993Z,96987.66
2022-09-22T14:51:21.785Z,96985.72
2022-09-22T14:53:52.615Z,96982.50
2022-09-22T14:56:27.658Z,96982.63
2022-09-22T14:58:57.872Z,96981.50
2022-09-22T15:01:45.037Z,96978.97
2022-09-22T15:04:18.589Z,96980.69
2022-09-22T15:06:48.275Z,96973.94
2022-09-22T15:09:24.801Z,96979.44
2022-09-22T15:11:55.895Z,96971.44
2022-09-22T15:14:43.211Z,96970.03
2022-09-22T15:17:55.693Z,96969.91
2022-09-22T15:20:29.767Z,96963.88
2022-09-22T15:22:58.576Z,96961.34
2022-09-22T15:25:26.584Z,96962.34
2022-09-22T15:27:54.624Z,96964.84
2022-09-22T15:30:23.433Z,96968.34
2022-09-22T15:32:51.400Z,96964.13
2022-09-22T15:35:20.400Z,96960.34
2022-09-22T15:37:51.131Z,96964.28
2022-09-22T15:40:21.323Z,96959.69
2022-09-22T15:43:12.175Z,96955.31
2022-09-22T15:45:39.286Z,96955.31
2022-09-22T15:48:09.950Z,96952.78
2022-09-22T15:50:37.983Z,96952.78
2022-09-22T15:53:07.296Z,96951.25
2022-09-22T15:55:35.361Z,96947.91
2022-09-22T15:58:09.002Z,96947.91
2022-09-22T16:00:38.986Z,96944.56
2022-09-22T16:03:15.612Z,96943.84
2022-09-22T16:05:45.114Z,96941.44
2022-09-22T16:08:17.624Z,96946.09
2022-09-22T16:10:46.052Z,96942.56
2022-09-22T16:13:14.240Z,96933.91
2022-09-22T16:15:42.180Z,96941.19
2022-09-22T16:18:10.155Z,96937.66
2022-09-22T16:20:38.469Z,96937.66
2022-09-22T16:23:07.434Z,96942.53
2022-09-22T16:25:38.005Z,96937.94
2022-09-22T16:28:06.334Z,96942.84
2022-09-22T16:30:34.330Z,96942.13
2022-09-22T16:33:02.274Z,96945.06
2022-09-22T16:35:30.367Z,96941.81
2022-09-22T16:37:58.319Z,96944.63
2022-09-22T16:40:28.681Z,96943.94
2022-09-22T16:42:58.078Z,96947.81
2022-09-22T16:45:43.693Z,96947.94
2022-09-22T16:48:11.645Z,96943.75
2022-09-22T16:50:39.623Z,96945.00
2022-09-22T16:53:09.182Z,96946.97
2022-09-22T16:55:37.772Z,96952.53
2022-09-22T16:58:13.136Z,96938.81
2022-09-22T17:00:41.159Z,96939.09
2022-09-22T17:03:09.520Z,96934.19
2022-09-22T17:05:38.606Z,96942.28
2022-09-22T17:08:07.074Z,96952.47
2022-09-22T17:10:35.842Z,96948.38
2022-09-22T17:13:05.320Z,96947.97
2022-09-22T17:15:36.097Z,96956.19
2022-09-22T17:18:04.968Z,96950.66
2022-09-22T17:20:32.987Z,96947.44
2022-09-22T17:23:00.922Z,96945.19
2022-09-22T17:25:29.114Z,96947.41
2022-09-22T17:27:57.857Z,96947.78
2022-09-22T17:30:26.346Z,96945.53
2022-09-22T17:32:55.718Z,96948.56
2022-09-22T17:35:23.707Z,96944.63
2022-09-22T17:37:52.225Z,96936.81
2022-09-22T17:40:20.227Z,96939.00
2022-09-22T17:42:48.305Z,96939.63
2022-09-22T17:45:16.292Z,96942.69
2022-09-22T17:48:01.890Z,96948.63
2022-09-22T17:50:48.432Z,96953.63
2022-09-22T17:53:33.695Z,96947.97
2022-09-22T17:56:05.181Z,96949.94
2022-09-22T17:58:33.451Z,96960.78
2022-09-22T18:01:01.420Z,96961.31
2022-09-22T18:03:29.385Z,96966.28
2022-09-22T18:05:59.217Z,96956.16
2022-09-22T18:08:27.264Z,96960.75
2022-09-22T18:10:55.235Z,96955.25
2022-09-22T18:13:23.251Z,96953.78
2022-09-22T18:15:52.301Z,96956.25
2022-09-22T18:18:20.267Z,96958.66
2022-09-22T18:20:48.414Z,96958.19
2022-09-22T18:23:18.878Z,96951.47
2022-09-22T18:25:47.191Z,96957.34
2022-09-22T18:28:15.352Z,96958.69
2022-09-22T18:30:43.328Z,96958.34
2022-09-22T18:33:11.979Z,96959.06
2022-09-22T18:35:44.218Z,96958.34
2022-09-22T18:38:14.203Z,96962.31
2022-09-22T18:40:43.995Z,96961.00
2022-09-22T18:43:12.057Z,96965.91
2022-09-22T18:45:39.975Z,96965.56
2022-09-22T18:48:08.205Z,96967.63
2022-09-22T18:50:36.348Z,96964.13
2022-09-22T18:53:04.605Z,96972.06
2022-09-22T18:55:32.587Z,96966.16
2022-09-22T18:58:02.164Z,96971.22
2022-09-22T19:00:30.164Z,96981.47
2022-09-22T19:02:58.502Z,96972.28
2022-09-22T19:05:27.385Z,96978.47
2022-09-22T19:07:58.443Z,96967.25
2022-09-22T19:10:26.554Z,96974.72
2022-09-22T19:12:54.510Z,96975.06
2022-09-22T19:15:25.289Z,96976.88
2022-09-22T19:17:53.284Z,96971.69
2022-09-22T19:20:23.343Z,96972.03
2022-09-22T19:22:53.892Z,96982.03
2022-09-22T19:25:22.659Z,96978.66
2022-09-22T19:27:52.383Z,96980.44
2022-09-22T19:30:23.317Z,96979.34
2022-09-22T19:32:54.592Z,96981.59
2022-09-22T19:35:23.021Z,96983.13
2022-09-22T19:37:51.935Z,96980.84
2022-09-22T19:40:20.621Z,96985.75
2022-09-22T19:42:49.884Z,96988.72
2022-09-22T19:45:19.110Z,96986.63
2022-09-22T19:47:48.010Z,96979.41
2022-09-22T19:50:18.040Z,96985.00
2022-09-22T19:52:46.688Z,96980.16
2022-09-22T19:55:17.870Z,96974.38
2022-09-22T19:57:48.789Z,96979.16
2022-09-22T20:00:18.237Z,96981.50
2022-09-22T20:02:46.795Z,96978.13
2022-09-22T20:05:22.777Z,96979.44
2022-09-22T20:07:51.000Z,96977.97
2022-09-22T20:10:22.526Z,96977.88
2022-09-22T20:12:51.032Z,96972.50
2022-09-22T20:15:20.254Z,96967.44
2022-09-22T20:17:48.519Z,96966.81
2022-09-22T20:20:18.007Z,96970.75
2022-09-22T20:22:48.701Z,96961.34
2022-09-22T20:25:27.973Z,96967.06
2022-09-22T20:27:56.222Z,96961.06
2022-09-22T20:30:25.494Z,96962.22
2022-09-22T20:32:53.457Z,96960.75
2022-09-22T20:35:22.084Z,96956.75
2022-09-22T20:37:52.336Z,96958.44
2022-09-22T20:40:23.209Z,96952.66
2022-09-22T20:42:53.069Z,96956.56
2022-09-22T20:45:22.958Z,96952.13
2022-09-22T20:47:51.028Z,96959.41
2022-09-22T20:50:19.673Z,96956.16
2022-09-22T20:52:47.951Z,96951.81
2022-09-22T20:55:17.726Z,96956.34
2022-09-22T20:57:45.743Z,96953.84
2022-09-22T21:00:15.389Z,96954.91
2022-09-22T21:02:43.644Z,96943.94
2022-09-22T21:05:12.474Z,96954.66
2022-09-22T21:07:40.492Z,96951.31
2022-09-22T21:10:26.527Z,96954.38
2022-09-22T21:12:56.503Z,96956.50
2022-09-22T21:15:24.586Z,96962.16
2022-09-22T21:17:52.906Z,96964.38
2022-09-22T21:20:21.658Z,96954.06
2022-09-22T21:22:49.674Z,96965.88
2022-09-22T21:25:17.887Z,96960.59
2022-09-22T21:27:47.235Z,96960.38
2022-09-22T21:30:16.637Z,96960.47
2022-09-22T21:32:44.569Z,96958.88
2022-09-22T21:35:16.567Z,96950.47
2022-09-22T21:37:44.733Z,96947.91
2022-09-22T21:40:13.296Z,96949.19
2022-09-22T21:42:41.571Z,96950.41
2022-09-22T21:45:10.570Z,96950.63
2022-09-22T21:47:40.019Z,96946.38
2022-09-22T21:50:08.873Z,96952.03
2022-09-22T21:52:38.504Z,96950.47
2022-09-22T21:55:07.666Z,96952.25
2022-09-22T21:57:35.668Z,96946.25
2022-09-22T22:00:05.707Z,96943.69
2022-09-22T22:02:55.082Z,96949.47
2022-09-22T22:05:23.081Z,96941.88
2022-09-22T22:07:51.085Z,96936.91
2022-09-22T22:10:19.204Z,96937.00
2022-09-22T22:12:47.247Z,96934.50
2022-09-22T22:15:15.583Z,96926.69
2022-09-22T22:17:44.906Z,96931.41
2022-09-22T22:20:12.960Z,96935.72
2022-09-22T22:22:40.939Z,96934.56
2022-09-22T22:25:13.760Z,96928.31
2022-09-22T22:27:44.673Z,96928.75
2022-09-22T22:30:13.957Z,96919.44
2022-09-22T22:32:42.435Z,96923.88
2022-09-22T22:35:12.756Z,96925.66
2022-09-22T22:37:40.822Z,96930.16
2022-09-22T22:40:09.638Z,96927.16
2022-09-22T22:42:37.667Z,96929.81
2022-09-22T22:45:06.521Z,96922.13
2022-09-22T22:47:34.899Z,96920.44
2022-09-22T22:50:02.875Z,96910.28
2022-09-22T22:52:32.393Z,96914.19
2022-09-22T22:55:00.330Z,96907.31
2022-09-22T22:57:28.927Z,96910.03
2022-09-22T22:59:57.346Z,96913.59
2022-09-22T23:02:25.746Z,96900.72
2022-09-22T23:04:54.438Z,96912.22
2022-09-22T23:07:22.390Z,96902.72
2022-09-22T23:10:06.453Z,96900.31
2022-09-22T23:12:36.029Z,96897.00
2022-09-22T23:15:05.043Z,96899.84
2022-09-22T23:17:33.793Z,96891.13
2022-09-22T23:20:02.432Z,96893.75
2022-09-22T23:22:30.730Z,96894.13
2022-09-22T23:25:00.649Z,96888.84
2022-09-22T23:27:29.585Z,96885.47
2022-09-22T23:29:58.389Z,96894.50
2022-09-22T23:32:26.643Z,96894.06
2022-09-22T23:34:54.941Z,96892.16
2022-09-22T23:37:24.839Z,96891.44
2022-09-22T23:39:53.426Z,96892.34
2022-09-22T23:42:23.446Z,96891.72
2022-09-22T23:44:52.453Z,96886.75
2022-09-22T23:47:20.807Z,96892.16
2022-09-22T23:49:48.951Z,96888.06
2022-09-22T23:52:17.164Z,96883.72
2022-09-22T23:54:45.443Z,96887.38
2022-09-22T23:57:13.720Z,96890.97
2022-09-22T23:59:43.240Z,96886.75
